• Join FlightAware (Why Join?)
  • Login
  • US Flag 
09:58PM EST


 

Airport Tracker/Info


-or-


 

Live Flight TrackerFlight Track Log ✈ SWA685 ✈ 13-Jul-2014 ✈ KOAK - KLAX

Flight Track Log - Related Links

Times and Time Zones

All times are in EDT time to prevent confusion due to time zone crossing. See the SWA685 flight status page for this flight to view local times or setup timezone preferences in your user account.

Time Position Orientation Groundspeed Altitude Reporting Facility
EDT Latitude Longitude Course Direction KTS MPH feet Rate Location/Type
03:32PM 37.7253 -122.2503 308° West 149 171 1,300  Level Oakland Center
03:33PM 37.7647 -122.3144 308° West 198 228 3,800 2,700 Climbing Oakland Center
03:34PM 37.7200 -122.3653 222° Southwest 242 278 6,900 3,060 Climbing Oakland Center
03:35PM 37.6531 -122.3889 196° South 243 280 10,200 2,700 Climbing Oakland Center
03:36PM 37.5661 -122.4197 196° South 317 365 12,500 2,580 Climbing Oakland Center
03:37PM 37.4725 -122.4297 185° South 356 410 15,600 2,820 Climbing Oakland Center
03:38PM 37.4056 -122.3336 131° Southeast 368 423 18,400 1,620 Climbing Oakland Center
03:39PM 37.3347 -122.2358 132° Southeast 376 433 19,000 1,260 Climbing Oakland Center
03:40PM 37.2639 -122.1394 133° Southeast 377 434 21,000 2,460 Climbing Oakland Center
03:41PM 37.1764 -122.0194 132° Southeast 386 444 24,100 2,640 Climbing Oakland Center
03:42PM 37.0997 -121.9147 133° Southeast 404 465 26,500 2,100 Climbing Oakland Center
03:43PM 37.0197 -121.8058 133° Southeast 424 488 28,500 1,980 Climbing Oakland Center
03:44PM 36.9361 -121.6956 133° Southeast 435 501 30,700 2,160 Climbing Oakland Center
03:45PM 36.8539 -121.5842 133° Southeast 436 502 33,000 1,800 Climbing Oakland Center
03:46PM 36.7711 -121.4739 133° Southeast 437 503 34,500 1,500 Climbing Oakland Center
03:47PM 36.6864 -121.3589 133° Southeast 446 513 36,200 1,860 Climbing Oakland Center
03:48PM 36.5858 -121.2225 133° Southeast 449 517 38,400 1,740 Climbing Oakland Center
03:49PM 36.5042 -121.1114 132° Southeast 443 510 39,900 1,200 Climbing Oakland Center
03:50PM 36.4217 -121.0017 133° Southeast 437 503 41,000 540 Climbing Oakland Center
03:51PM 36.3397 -120.8911 133° Southeast 437 503 41,000  Level Oakland Center
03:52PM 36.2586 -120.7817 133° Southeast 436 502 41,000  Level Oakland Center
03:53PM 36.1761 -120.6722 133° Southeast 435 501 41,000  Level Oakland Center
03:54PM 36.0942 -120.5642 133° Southeast 434 499 41,000  Level Oakland Center
03:55PM 35.9961 -120.4344 133° Southeast 433 498 41,000  Level Oakland Center
03:56PM 35.9133 -120.3264 133° Southeast 433 498 41,000  Level Oakland Center
03:57PM 35.8314 -120.2172 133° Southeast 432 497 41,000  Level Oakland Center
03:58PM 35.7475 -120.1089 134° Southeast 433 498 41,000  Level Oakland Center
03:59PM 35.6642 -119.9986 133° Southeast 433 498 41,000  Level Oakland Center
04:00PM 35.5669 -119.9089 143° Southeast 432 497 41,000 -60 Level Los Angeles Center
04:01PM 35.4678 -119.8219 144° Southeast 432 497 40,900 -780 Descending Los Angeles Center
04:02PM 35.3675 -119.7364 145° Southeast 433 498 39,400 -1,680 Descending Los Angeles Center
04:04PM 35.2489 -119.6339 145° Southeast 433 498 37,500 -1,740 Descending Los Angeles Center
04:05PM 35.1478 -119.5489 145° Southeast 435 501 35,900 -1,620 Descending Los Angeles Center
04:06PM 35.0467 -119.4606 144° Southeast 443 510 34,200 -2,040 Descending Los Angeles Center
04:07PM 34.9417 -119.3725 145° Southeast 454 522 31,700 -2,460 Descending Los Angeles Center
04:08PM 34.8375 -119.2847 145° Southeast 454 522 29,100 -2,520 Descending Los Angeles Center
04:09PM 34.7400 -119.2025 145° Southeast 433 498 26,600 -2,460 Descending Los Angeles Center
04:10PM 34.6369 -119.1150 145° Southeast 413 475 24,000 -2,460 Descending Los Angeles Center
04:11PM 34.5469 -119.0378 145° Southeast 399 459 21,600 -2,340 Descending Los Angeles Center
04:12PM 34.4603 -118.9661 146° Southeast 379 436 19,300 -2,460 Descending Los Angeles Center
04:13PM 34.3589 -118.8828 146° Southeast 365 420 16,600 -2,520 Descending Los Angeles Center
04:14PM 34.2642 -118.8461 162° South 358 412 14,200 -2,160 Descending Los Angeles Center
04:15PM 34.1719 -118.8128 163° South 348 400 12,100 -1,560 Descending Los Angeles Center
04:16PM 34.0764 -118.7767 163° South 326 375 11,000 -1,020 Descending Los Angeles Center
04:17PM 34.0347 -118.7072 126° Southeast 280 322 10,000 -960 Descending Los Angeles Center
04:18PM 34.0244 -118.6108 97° East 270 311 9,100 -1,260 Descending Los Angeles Center
04:19PM 34.0164 -118.5178 96° East 279 321 7,500 -1,080 Descending Los Angeles Center
04:20PM 34.0144 -118.4281 91° East 275 316 6,900 -1,080 Descending Los Angeles Center
04:21PM 34.0269 -118.3367 81° East 271 312 5,300 -1,080 Descending Los Angeles Center
04:22PM 34.0317 -118.2517 86° East 261 300 4,700 -780 Descending Los Angeles Center
04:23PM 33.9778 -118.2383 168° South 231 266 3,700 -1,260 Descending Los Angeles Center
04:24PM 33.9639 -118.2900 252° West 204 235 2,200 -1,320 Descending Los Angeles Center
04:25PM 33.9586 -118.3506 264° West 170 196 1,000 -960 Descending Los Angeles Center
04:26PM 33.9539 -118.3939 263° West 147 169 300 -720 Descending Los Angeles Center
04:28PM 33.9333 -118.4000 228° Southwest  Level FlightAware Approximate
04:35PM 33.9425 -118.4081 228° Southwest  Level Estimated